createdAt,value
2019-06-15T00:00:31.863Z,8.80
2019-06-15T00:03:37.984Z,10.10
2019-06-15T00:06:44.064Z,6.90
2019-06-15T00:09:50.414Z,9.20
2019-06-15T00:12:56.742Z,7.87
2019-06-15T00:16:04.344Z,10.13
2019-06-15T00:19:10.816Z,9.05
2019-06-15T00:22:16.949Z,11.97
2019-06-15T00:25:23.056Z,9.03
2019-06-15T00:28:29.465Z,8.00
2019-06-15T00:31:37.196Z,8.97
2019-06-15T00:34:43.633Z,10.38
2019-06-15T00:37:49.701Z,9.43
2019-06-15T00:40:55.881Z,10.83
2019-06-15T00:44:02.525Z,9.53
2019-06-15T00:47:08.745Z,11.60
2019-06-15T00:50:14.965Z,9.87
2019-06-15T00:53:24.027Z,10.60
2019-06-15T00:56:30.115Z,11.97
2019-06-15T00:59:36.288Z,10.83
2019-06-15T01:02:42.480Z,8.90
2019-06-15T01:05:48.691Z,11.20
2019-06-15T01:08:54.774Z,11.57
2019-06-15T01:12:00.907Z,15.33
2019-06-15T01:15:08.409Z,8.97
2019-06-15T01:18:14.523Z,13.17
2019-06-15T01:21:20.745Z,13.40
2019-06-15T01:24:26.931Z,11.30
2019-06-15T01:27:33.021Z,10.47
2019-06-15T01:30:39.174Z,10.27
2019-06-15T01:33:45.316Z,14.87
2019-06-15T01:36:52.744Z,11.83
2019-06-15T01:39:58.865Z,11.80
2019-06-15T01:43:04.970Z,13.03
2019-06-15T01:46:12.194Z,12.37
2019-06-15T01:49:18.583Z,9.63
2019-06-15T01:52:24.671Z,15.50
2019-06-15T01:55:31.491Z,10.10
2019-06-15T01:58:38.502Z,13.50
2019-06-15T02:01:44.851Z,11.60
2019-06-15T02:04:50.988Z,10.17
2019-06-15T02:07:57.325Z,14.93
2019-06-15T02:11:03.559Z,11.87
2019-06-15T02:14:10.641Z,12.23
2019-06-15T02:17:17.974Z,11.33
2019-06-15T02:20:24.585Z,12.27
2019-06-15T02:23:30.643Z,14.37
2019-06-15T02:26:37.387Z,12.40
2019-06-15T02:29:43.513Z,12.40
2019-06-15T02:32:49.638Z,13.53
2019-06-15T02:35:56.026Z,13.22
2019-06-15T02:39:02.218Z,12.57
2019-06-15T02:42:09.694Z,15.50
2019-06-15T02:45:16.251Z,13.95
2019-06-15T02:48:22.664Z,12.97
2019-06-15T02:51:29.140Z,14.23
2019-06-15T02:54:35.535Z,11.65
2019-06-15T02:57:42.116Z,13.83
2019-06-15T03:01:00.174Z,15.67
2019-06-15T03:04:06.735Z,13.00
2019-06-15T03:07:14.144Z,15.50
2019-06-15T03:10:21.562Z,11.60
2019-06-15T03:13:28.807Z,13.22
2019-06-15T03:16:35.468Z,13.28
2019-06-15T03:19:41.841Z,14.33
2019-06-15T03:22:48.216Z,12.50
2019-06-15T03:26:05.084Z,12.80
2019-06-15T03:29:03.856Z,14.60
2019-06-15T03:32:10.227Z,15.13
2019-06-15T03:35:17.566Z,15.23
2019-06-15T03:38:23.915Z,13.60
2019-06-15T03:41:30.301Z,12.03
2019-06-15T03:44:37.081Z,13.85
2019-06-15T03:47:43.920Z,15.20
2019-06-15T03:50:50.726Z,15.88
2019-06-15T03:53:58.708Z,12.55
2019-06-15T03:57:05.901Z,11.50
2019-06-15T04:00:47.446Z,11.73
2019-06-15T04:03:54.014Z,11.85
2019-06-15T04:07:03.230Z,15.33
2019-06-15T04:10:09.710Z,13.53
2019-06-15T04:13:16.130Z,13.25
2019-06-15T04:16:22.495Z,11.35
2019-06-15T04:19:28.753Z,13.00
2019-06-15T04:22:34.904Z,12.30
2019-06-15T04:25:44.095Z,12.13
2019-06-15T04:28:49.083Z,15.00
2019-06-15T04:31:55.577Z,10.80
2019-06-15T04:35:01.834Z,15.20
2019-06-15T04:38:08.230Z,11.43
2019-06-15T04:41:14.790Z,11.27
2019-06-15T04:44:21.181Z,12.58
2019-06-15T04:47:27.650Z,12.53
2019-06-15T04:50:34.150Z,13.15
2019-06-15T04:53:40.524Z,13.13
2019-06-15T04:56:50.893Z,11.08
2019-06-15T04:59:54.831Z,12.17
2019-06-15T05:03:01.376Z,13.53
2019-06-15T05:06:07.876Z,15.38
2019-06-15T05:09:13.999Z,15.40
2019-06-15T05:12:20.120Z,12.10
2019-06-15T05:15:26.319Z,12.77
2019-06-15T05:18:32.590Z,13.07
2019-06-15T05:21:38.818Z,11.33
2019-06-15T05:24:44.943Z,11.80
2019-06-15T05:27:51.142Z,12.60
2019-06-15T05:30:57.221Z,11.27
2019-06-15T05:34:05.881Z,9.77
2019-06-15T05:37:12.236Z,11.33
2019-06-15T05:40:18.655Z,12.07
2019-06-15T05:43:24.833Z,9.33
2019-06-15T05:46:31.050Z,11.63
2019-06-15T05:49:37.139Z,10.93
2019-06-15T05:52:43.382Z,11.93
2019-06-15T05:55:49.739Z,14.00
2019-06-15T05:58:56.026Z,9.60
2019-06-15T06:02:02.621Z,12.63
2019-06-15T06:05:09.696Z,10.97
2019-06-15T06:08:15.792Z,12.20
2019-06-15T06:11:21.942Z,10.40
2019-06-15T06:14:28.146Z,11.60
2019-06-15T06:17:34.258Z,12.67
2019-06-15T06:20:40.378Z,10.43
2019-06-15T06:23:46.649Z,11.27
2019-06-15T06:26:53.078Z,13.80
2019-06-15T06:30:02.541Z,10.57
2019-06-15T06:33:08.961Z,11.97
2019-06-15T06:36:15.075Z,11.30
2019-06-15T06:39:21.215Z,12.07
2019-06-15T06:42:27.450Z,13.40
2019-06-15T06:45:33.623Z,12.40
2019-06-15T06:48:39.821Z,10.67
2019-06-15T06:51:45.927Z,10.27
2019-06-15T06:54:52.060Z,11.13
2019-06-15T06:57:58.526Z,13.40
2019-06-15T07:01:06.011Z,9.67
2019-06-15T07:04:12.205Z,13.20
2019-06-15T07:07:18.513Z,9.90
2019-06-15T07:10:24.674Z,10.90
2019-06-15T07:13:30.910Z,8.27
2019-06-15T07:16:37.022Z,11.57
2019-06-15T07:19:43.260Z,8.83
2019-06-15T07:22:49.334Z,8.40
2019-06-15T07:25:55.541Z,9.50
2019-06-15T07:29:01.788Z,7.30
2019-06-15T07:32:07.941Z,5.30
2019-06-15T07:35:14.960Z,5.50
2019-06-15T07:38:21.072Z,6.43
2019-06-15T07:41:27.160Z,5.70
2019-06-15T07:44:35.472Z,7.27
2019-06-15T07:47:44.564Z,6.80
2019-06-15T07:50:51.576Z,6.50
2019-06-15T07:53:57.739Z,8.53
2019-06-15T07:57:04.065Z,7.37
2019-06-15T08:00:12.507Z,7.63
2019-06-15T08:03:18.799Z,7.17
2019-06-15T08:06:25.002Z,9.03
2019-06-15T08:09:31.195Z,6.63
2019-06-15T08:12:37.538Z,7.83
2019-06-15T08:15:43.906Z,6.53
2019-06-15T08:18:51.164Z,6.83
2019-06-15T08:21:57.239Z,7.20
2019-06-15T08:25:03.751Z,10.50
2019-06-15T08:28:09.941Z,8.80
2019-06-15T08:31:18.778Z,8.03
2019-06-15T08:34:24.876Z,5.60
2019-06-15T08:37:31.016Z,5.73
2019-06-15T08:40:37.207Z,6.80
2019-06-15T08:43:43.292Z,5.10
2019-06-15T08:46:49.376Z,6.00
2019-06-15T08:49:55.657Z,5.53
2019-06-15T08:53:02.952Z,6.97
2019-06-15T08:56:09.261Z,6.87
2019-06-15T08:59:15.605Z,4.80
2019-06-15T09:02:22.562Z,6.77
2019-06-15T09:05:30.402Z,5.47
2019-06-15T09:08:36.905Z,8.30
2019-06-15T09:11:43.014Z,6.40
2019-06-15T09:14:49.170Z,5.07
2019-06-15T09:17:55.274Z,4.80
2019-06-15T09:21:03.177Z,5.60
2019-06-15T09:24:09.287Z,5.70
2019-06-15T09:27:15.651Z,5.37
2019-06-15T09:30:21.892Z,6.40
2019-06-15T09:33:28.055Z,5.90
2019-06-15T09:36:34.212Z,6.60
2019-06-15T09:39:40.577Z,7.27
2019-06-15T09:42:47.093Z,6.60
2019-06-15T09:45:53.663Z,5.73
2019-06-15T09:48:59.903Z,5.73
2019-06-15T09:52:07.658Z,6.10
2019-06-15T09:55:14.124Z,8.60
2019-06-15T09:58:20.272Z,5.53
2019-06-15T10:01:26.489Z,4.00
2019-06-15T10:04:32.967Z,6.40
2019-06-15T10:07:39.266Z,7.20
2019-06-15T10:10:45.498Z,6.40
2019-06-15T10:13:51.609Z,8.37
2019-06-15T10:16:57.688Z,6.80
2019-06-15T10:20:07.254Z,6.87
2019-06-15T10:23:13.419Z,6.43
2019-06-15T10:26:19.843Z,10.90
2019-06-15T10:29:38.597Z,5.60
2019-06-15T10:32:34.967Z,7.50
2019-06-15T10:35:41.041Z,8.57
2019-06-15T10:38:47.131Z,5.47
2019-06-15T10:41:53.228Z,3.97
2019-06-15T10:44:59.593Z,4.50
2019-06-15T10:48:05.878Z,5.60
2019-06-15T10:51:12.056Z,4.00
2019-06-15T10:54:18.229Z,4.67
2019-06-15T10:57:25.358Z,4.20
2019-06-15T11:00:31.692Z,3.83
2019-06-15T11:03:38.369Z,3.40
2019-06-15T11:06:45.843Z,4.90
2019-06-15T11:09:52.177Z,4.70
2019-06-15T11:12:59.457Z,5.23
2019-06-15T11:16:05.899Z,3.97
2019-06-15T11:19:12.192Z,3.97
2019-06-15T11:22:18.306Z,4.43
2019-06-15T11:25:24.568Z,3.77
2019-06-15T11:28:30.688Z,3.77
2019-06-15T11:31:36.975Z,3.30
2019-06-15T11:34:43.175Z,4.63
2019-06-15T11:37:49.263Z,4.70
2019-06-15T11:40:55.428Z,3.87
2019-06-15T11:44:01.495Z,3.40
2019-06-15T11:47:07.812Z,4.00
2019-06-15T11:50:14.307Z,3.87
2019-06-15T11:53:20.501Z,2.57
2019-06-15T11:56:26.670Z,3.23
2019-06-15T11:59:33.075Z,3.47
2019-06-15T12:02:39.254Z,4.90
2019-06-15T12:05:45.638Z,2.80
2019-06-15T12:08:52.166Z,4.00
2019-06-15T12:11:58.511Z,3.70
2019-06-15T12:15:05.940Z,5.20
2019-06-15T12:18:12.120Z,5.10
2019-06-15T12:21:19.369Z,3.47
2019-06-15T12:24:26.440Z,2.53
2019-06-15T12:27:32.562Z,4.10
2019-06-15T12:30:46.802Z,4.73
2019-06-15T12:33:47.931Z,2.93
2019-06-15T12:36:54.087Z,4.33
2019-06-15T12:40:00.655Z,3.50
2019-06-15T12:43:07.032Z,4.23
2019-06-15T12:46:14.386Z,3.53
2019-06-15T12:49:20.681Z,2.83
2019-06-15T12:52:26.968Z,3.00
2019-06-15T12:55:33.245Z,3.03
2019-06-15T12:58:42.355Z,2.97
2019-06-15T13:01:48.648Z,5.23
2019-06-15T13:04:55.059Z,3.87
2019-06-15T13:08:01.344Z,3.20
2019-06-15T13:11:09.406Z,2.70
2019-06-15T13:14:15.534Z,4.10
2019-06-15T13:17:21.635Z,3.23
2019-06-15T13:20:29.822Z,2.57
2019-06-15T13:23:36.030Z,3.40
2019-06-15T13:26:42.262Z,3.83
2019-06-15T13:29:48.364Z,3.50
2019-06-15T13:32:54.580Z,3.67
2019-06-15T13:36:00.727Z,3.67
2019-06-15T13:42:16.325Z,2.97
2019-06-15T13:45:22.518Z,2.77
2019-06-15T13:48:28.761Z,3.10
2019-06-15T13:51:35.006Z,2.60
2019-06-15T13:54:41.160Z,2.83
2019-06-15T13:57:47.359Z,3.30
2019-06-15T14:00:54.839Z,3.43
2019-06-15T14:04:00.969Z,3.20
2019-06-15T14:07:07.211Z,2.57
2019-06-15T14:10:15.554Z,2.93
2019-06-15T14:13:22.219Z,2.63
2019-06-15T14:16:28.696Z,3.43
2019-06-15T14:19:35.003Z,2.30
2019-06-15T14:22:41.087Z,3.70
2019-06-15T14:25:47.337Z,3.20
2019-06-15T14:28:56.224Z,3.20
2019-06-15T14:32:03.064Z,3.20
2019-06-15T14:35:09.726Z,3.30
2019-06-15T14:38:15.860Z,4.30
2019-06-15T14:41:21.987Z,3.60
2019-06-15T14:44:28.217Z,2.17
2019-06-15T14:47:34.433Z,3.87
2019-06-15T14:50:40.577Z,3.83
2019-06-15T14:53:55.560Z,3.07
2019-06-15T14:56:56.767Z,4.70
2019-06-15T15:00:05.855Z,3.27
2019-06-15T15:03:10.922Z,2.50
2019-06-15T15:06:17.343Z,2.43
2019-06-15T15:09:23.598Z,3.10
2019-06-15T15:12:33.248Z,2.47
2019-06-15T15:15:39.829Z,2.37
2019-06-15T15:18:46.448Z,2.70
2019-06-15T15:21:52.974Z,3.43
2019-06-15T15:25:00.799Z,2.40
2019-06-15T15:28:07.478Z,2.40
2019-06-15T15:31:16.899Z,2.53
2019-06-15T15:34:23.236Z,2.93
2019-06-15T15:37:31.036Z,2.30
2019-06-15T15:40:37.225Z,2.93
2019-06-15T15:43:46.103Z,2.80
2019-06-15T15:46:51.282Z,2.03
2019-06-15T15:49:59.161Z,2.00
2019-06-15T15:53:06.269Z,2.90
2019-06-15T15:56:12.383Z,5.07
2019-06-15T15:59:18.657Z,30.23
2019-06-15T16:02:41.703Z,2.60
2019-06-15T16:05:37.187Z,2.60
2019-06-15T16:08:46.698Z,2.13
2019-06-15T16:11:51.596Z,2.97
2019-06-15T16:14:57.693Z,3.77
2019-06-15T16:18:06.567Z,3.07
2019-06-15T16:21:12.089Z,2.23
2019-06-15T16:24:19.299Z,1.90
2019-06-15T16:27:26.566Z,2.20
2019-06-15T16:31:00.349Z,2.67
2019-06-15T16:33:46.438Z,2.50
2019-06-15T16:36:52.063Z,3.80
2019-06-15T16:39:58.168Z,3.20
2019-06-15T16:43:06.910Z,3.07
2019-06-15T16:46:12.377Z,2.13
2019-06-15T16:49:20.759Z,2.70
2019-06-15T16:52:27.026Z,2.30
2019-06-15T16:55:33.387Z,4.33
2019-06-15T16:58:39.651Z,2.63
2019-06-15T17:01:45.896Z,3.27
2019-06-15T17:04:51.999Z,3.33
2019-06-15T17:07:58.205Z,3.40
2019-06-15T17:11:06.724Z,5.30
2019-06-15T17:14:13.176Z,3.30
2019-06-15T17:17:19.314Z,2.20
2019-06-15T17:20:31.056Z,3.93
2019-06-15T17:23:37.227Z,3.87
2019-06-15T17:26:43.382Z,3.73
2019-06-15T17:29:49.474Z,3.10
2019-06-15T17:32:56.698Z,3.60
2019-06-15T17:36:03.549Z,3.10
2019-06-15T17:39:09.936Z,2.60
2019-06-15T17:42:16.476Z,2.43
2019-06-15T17:45:22.923Z,3.50
2019-06-15T17:48:29.067Z,2.60
2019-06-15T17:51:36.793Z,2.50
2019-06-15T17:54:46.488Z,2.53
2019-06-15T17:57:52.083Z,2.20
2019-06-15T18:00:58.159Z,3.20
2019-06-15T18:04:07.541Z,2.10
2019-06-15T18:07:12.595Z,3.43
2019-06-15T18:10:20.148Z,3.10
2019-06-15T18:13:26.387Z,2.80
2019-06-15T18:16:32.916Z,3.20
2019-06-15T18:19:38.986Z,3.00
2019-06-15T18:22:46.904Z,3.17
2019-06-15T18:25:53.177Z,3.37
2019-06-15T18:28:59.367Z,3.07
2019-06-15T18:32:06.461Z,2.60
2019-06-15T18:35:12.804Z,2.50
2019-06-15T18:38:19.065Z,3.03
2019-06-15T18:41:27.632Z,3.40
2019-06-15T18:44:33.704Z,3.23
2019-06-15T18:47:40.948Z,4.07
2019-06-15T18:50:47.049Z,3.30
2019-06-15T18:53:53.173Z,3.63
2019-06-15T18:56:59.280Z,4.00
2019-06-15T19:00:07.309Z,3.43
2019-06-15T19:03:16.521Z,2.63
2019-06-15T19:06:22.698Z,3.00
2019-06-15T19:09:28.800Z,2.87
2019-06-15T19:12:35.211Z,4.07
2019-06-15T19:15:41.302Z,2.50
2019-06-15T19:18:47.440Z,2.60
2019-06-15T19:21:53.546Z,2.70
2019-06-15T19:25:00.308Z,2.20
2019-06-15T19:28:06.539Z,2.83
2019-06-15T19:31:12.733Z,2.00
2019-06-15T19:34:19.476Z,2.33
2019-06-15T19:37:26.151Z,3.07
2019-06-15T19:40:33.635Z,2.60
2019-06-15T19:43:40.385Z,2.27
2019-06-15T19:46:47.649Z,2.77
2019-06-15T19:49:56.853Z,2.97
2019-06-15T19:53:02.481Z,2.33
2019-06-15T19:56:08.862Z,2.50
2019-06-15T19:59:17.108Z,3.72
2019-06-15T20:02:23.608Z,3.40
2019-06-15T20:05:29.992Z,2.45
2019-06-15T20:08:36.498Z,3.12
2019-06-15T20:11:42.643Z,2.70
2019-06-15T20:15:13.101Z,3.12
2019-06-15T20:18:19.175Z,2.20
2019-06-15T20:21:25.607Z,2.90
2019-06-15T20:24:32.176Z,2.72
2019-06-15T20:27:39.247Z,2.30
2019-06-15T20:30:46.215Z,2.30
2019-06-15T20:33:52.876Z,3.52
2019-06-15T20:36:59.452Z,2.50
2019-06-15T20:40:07.231Z,2.98
2019-06-15T20:43:17.077Z,2.58
2019-06-15T20:46:26.297Z,4.35
2019-06-15T20:49:31.829Z,3.10
2019-06-15T20:52:38.201Z,2.70
2019-06-15T20:55:46.571Z,2.58
2019-06-15T20:58:52.740Z,2.65
2019-06-15T21:01:59.267Z,2.42
2019-06-15T21:05:09.725Z,2.17
2019-06-15T21:08:16.372Z,2.90
2019-06-15T21:11:26.380Z,3.12
2019-06-15T21:14:33.101Z,2.95
2019-06-15T21:17:39.480Z,3.20
2019-06-15T21:20:47.077Z,2.80
2019-06-15T21:23:53.804Z,5.30
2019-06-15T21:27:00.330Z,4.40
2019-06-15T21:30:08.992Z,2.62
2019-06-15T21:33:16.467Z,2.72
2019-06-15T21:36:22.947Z,4.37
2019-06-15T21:39:30.401Z,4.10
2019-06-15T21:42:36.944Z,3.62
2019-06-15T21:45:46.107Z,4.05
2019-06-15T21:48:51.734Z,3.17
2019-06-15T21:51:58.085Z,3.08
2019-06-15T21:55:06.989Z,4.67
2019-06-15T21:58:13.467Z,4.25
2019-06-15T22:01:37.462Z,3.30
2019-06-15T22:04:46.024Z,3.37
2019-06-15T22:07:51.737Z,3.30
2019-06-15T22:10:58.109Z,3.67
2019-06-15T22:14:06.333Z,3.17
2019-06-15T22:17:12.980Z,2.90
2019-06-15T22:20:19.484Z,4.12
2019-06-15T22:23:26.852Z,4.53
2019-06-15T22:26:33.392Z,3.30
2019-06-15T22:29:39.853Z,3.52
2019-06-15T22:32:47.313Z,3.85
2019-06-15T22:35:56.460Z,3.10
2019-06-15T22:39:02.627Z,3.02
2019-06-15T22:42:10.635Z,3.30
2019-06-15T22:45:18.122Z,3.58
2019-06-15T22:48:27.029Z,3.35
2019-06-15T22:51:32.663Z,4.12
2019-06-15T22:54:39.009Z,3.55
2019-06-15T22:57:46.105Z,4.17
2019-06-15T23:00:52.669Z,3.08
2019-06-15T23:03:59.168Z,3.55
2019-06-15T23:07:06.917Z,4.30
2019-06-15T23:10:16.505Z,4.92
2019-06-15T23:13:22.913Z,3.42
2019-06-15T23:16:29.316Z,4.50
2019-06-15T23:19:35.695Z,4.70
2019-06-15T23:22:42.321Z,4.67
2019-06-15T23:25:51.177Z,4.22
2019-06-15T23:28:57.642Z,5.92
2019-06-15T23:32:06.163Z,5.25
2019-06-15T23:35:13.084Z,3.98
2019-06-15T23:38:19.636Z,3.42
2019-06-15T23:41:27.299Z,4.75
2019-06-15T23:44:36.129Z,4.20
2019-06-15T23:47:42.896Z,3.77
2019-06-15T23:50:49.364Z,4.87
2019-06-15T23:53:57.124Z,4.55
2019-06-15T23:57:06.261Z,3.80
